Time;durP1;ratioP1;P1;durP2;ratioP2;P2;SDS_P1;SDS_P2;PMS_P1;PMS_P2;Temp;Humidity;BMP_temperature;BMP_pressure;BME280_temperature;BME280_humidity;BME280_pressure;Samples;Min_cycle;Max_cycle;Signal;HPM_P1;HPM_P2
2023/08/08 00:02:13;;;;;;;4.50;2.10;;;18.20;99.90;;;;;;5054222;28;20032;-59
2023/08/08 00:04:39;;;;;;;6.95;2.28;;;18.00;99.90;;;;;;5054333;28;20115;-59
2023/08/08 00:07:05;;;;;;;5.55;2.47;;;17.90;99.90;;;;;;5054228;28;20497;-59
2023/08/08 00:09:31;;;;;;;5.00;2.17;;;17.90;99.90;;;;;;5054049;28;20037;-60
2023/08/08 00:11:57;;;;;;;5.32;2.20;;;17.70;99.90;;;;;;5054546;28;20036;-60
2023/08/08 00:14:24;;;;;;;4.07;2.10;;;17.70;99.90;;;;;;5053682;28;20072;-59
2023/08/08 00:16:49;;;;;;;4.97;2.30;;;17.50;99.90;;;;;;5054027;28;20029;-59
2023/08/08 00:19:15;;;;;;;9.02;2.50;;;17.50;99.90;;;;;;5053879;28;20025;-59
2023/08/08 00:21:41;;;;;;;5.05;2.60;;;17.50;99.90;;;;;;5053946;28;20025;-59
2023/08/08 00:24:06;;;;;;;4.70;2.30;;;17.50;99.90;;;;;;5053870;28;20128;-59
2023/08/08 00:26:32;;;;;;;5.78;2.85;;;17.40;99.90;;;;;;5053879;28;20049;-59
2023/08/08 00:28:58;;;;;;;4.40;2.08;;;17.40;99.90;;;;;;5053491;28;20060;-59
2023/08/08 00:31:23;;;;;;;6.38;2.40;;;17.30;99.90;;;;;;5053855;28;20029;-59
2023/08/08 00:33:49;;;;;;;4.13;2.40;;;17.30;99.90;;;;;;5053746;28;20025;-59
2023/08/08 00:36:15;;;;;;;5.32;2.42;;;17.20;99.90;;;;;;5053844;28;20445;-59
2023/08/08 00:38:40;;;;;;;6.20;2.42;;;17.30;99.90;;;;;;5053441;28;20029;-59
2023/08/08 00:41:06;;;;;;;4.43;2.30;;;17.40;99.90;;;;;;5053603;28;20037;-60
2023/08/08 00:43:32;;;;;;;3.83;2.00;;;17.60;99.90;;;;;;5053534;28;20128;-60
2023/08/08 00:45:58;;;;;;;2.97;1.75;;;17.70;99.90;;;;;;5053460;28;20025;-59
2023/08/08 00:48:24;;;;;;;5.50;2.20;;;17.70;99.90;;;;;;5053618;28;20033;-59
2023/08/08 00:50:50;;;;;;;4.28;2.30;;;17.70;99.90;;;;;;5053353;28;20025;-59
2023/08/08 00:53:18;;;;;;;5.32;2.45;;;17.70;99.90;;;;;;5052671;28;20036;-59
2023/08/08 00:55:43;;;;;;;6.38;2.20;;;17.70;99.90;;;;;;5052847;28;20021;-58
2023/08/08 00:58:10;;;;;;;5.00;2.40;;;17.70;99.90;;;;;;5053277;28;20032;-59
2023/08/08 01:00:36;;;;;;;6.53;2.38;;;17.70;99.90;;;;;;5053281;28;20021;-59
2023/08/08 01:03:02;;;;;;;5.18;2.47;;;17.70;99.90;;;;;;5053151;28;20060;-60
2023/08/08 01:05:36;;;;;;;3.70;1.98;;;17.60;99.90;;;;;;5053187;28;20128;-59
2023/08/08 01:08:07;;;;;;;3.90;2.08;;;17.60;99.90;;;;;;5052995;28;20037;-59
2023/08/08 01:10:41;;;;;;;5.30;2.63;;;17.40;99.90;;;;;;5052754;28;20032;-59
2023/08/08 01:13:11;;;;;;;5.78;2.67;;;17.20;99.90;;;;;;5053047;28;20021;-60
2023/08/08 01:15:37;;;;;;;3.75;2.05;;;17.00;99.90;;;;;;5053147;28;20037;-60
2023/08/08 01:18:08;;;;;;;4.50;2.50;;;16.80;99.90;;;;;;5052866;28;20040;-59
2023/08/08 01:20:34;;;;;;;7.03;2.92;;;16.70;99.90;;;;;;5052846;28;20397;-59
2023/08/08 01:23:17;;;;;;;6.15;2.58;;;16.60;99.90;;;;;;5052560;28;20032;-60
2023/08/08 01:25:44;;;;;;;4.85;2.35;;;16.60;99.90;;;;;;5052236;28;20059;-59
2023/08/08 01:28:10;;;;;;;4.18;2.20;;;16.50;99.90;;;;;;5053078;28;20104;-59
2023/08/08 01:30:35;;;;;;;3.95;2.42;;;16.40;99.90;;;;;;5052883;28;20029;-59
2023/08/08 01:33:02;;;;;;;3.33;2.15;;;16.40;99.90;;;;;;5052645;28;20116;-59
2023/08/08 01:35:32;;;;;;;5.55;2.15;;;16.20;99.90;;;;;;5052400;28;20122;-60
2023/08/08 01:38:25;;;;;;;4.65;2.10;;;16.20;99.90;;;;;;5052427;28;20026;-59
2023/08/08 01:40:51;;;;;;;5.97;2.30;;;16.30;99.90;;;;;;5050892;28;20029;-59
2023/08/08 01:43:18;;;;;;;5.38;2.30;;;16.40;99.90;;;;;;5052380;28;20078;-58
2023/08/08 01:45:44;;;;;;;6.32;2.40;;;16.40;99.90;;;;;;5052789;28;20025;-58
2023/08/08 01:48:11;;;;;;;5.90;2.42;;;16.30;99.90;;;;;;5052286;28;20032;-59
2023/08/08 01:50:37;;;;;;;3.67;2.00;;;16.20;99.90;;;;;;5052401;28;20032;-59
2023/08/08 01:53:03;;;;;;;4.45;2.10;;;16.10;99.90;;;;;;5052213;28;20024;-59
2023/08/08 01:55:30;;;;;;;3.67;2.20;;;16.20;99.90;;;;;;5051822;28;20013;-59
2023/08/08 01:57:56;;;;;;;5.93;2.30;;;16.40;99.90;;;;;;5050994;28;20163;-59
2023/08/08 02:00:21;;;;;;;5.43;2.10;;;16.50;99.90;;;;;;5052130;28;20410;-59
2023/08/08 02:02:47;;;;;;;4.90;2.15;;;16.70;99.90;;;;;;5052357;28;20379;-59
2023/08/08 02:05:13;;;;;;;4.18;2.30;;;17.00;99.90;;;;;;5051801;28;20087;-59
2023/08/08 02:07:39;;;;;;;5.68;2.28;;;16.90;99.90;;;;;;5051767;28;20108;-59
2023/08/08 02:10:05;;;;;;;7.60;2.42;;;17.00;99.90;;;;;;5051604;28;20534;-59
2023/08/08 02:12:31;;;;;;;4.70;2.17;;;16.90;99.90;;;;;;5051982;28;20025;-58
2023/08/08 02:14:57;;;;;;;5.13;2.40;;;16.90;99.90;;;;;;5052101;28;20500;-59
2023/08/08 02:17:23;;;;;;;5.70;2.65;;;16.80;99.90;;;;;;5051800;28;20033;-59
2023/08/08 02:19:49;;;;;;;5.13;2.10;;;16.80;99.90;;;;;;5050345;28;20025;-59
2023/08/08 02:22:14;;;;;;;5.57;2.50;;;16.80;99.90;;;;;;5051585;28;20025;-59
2023/08/08 02:24:40;;;;;;;6.18;2.42;;;16.50;99.90;;;;;;5051465;28;20045;-60
2023/08/08 02:27:06;;;;;;;5.75;2.42;;;16.40;99.90;;;;;;5051586;28;20033;-59
2023/08/08 02:29:31;;;;;;;6.28;2.05;;;16.30;99.90;;;;;;5051573;28;20064;-59
2023/08/08 02:31:57;;;;;;;4.80;2.30;;;16.20;99.90;;;;;;5051851;28;20064;-60
2023/08/08 02:34:23;;;;;;;6.55;2.42;;;16.10;99.90;;;;;;5051623;28;20130;-59
2023/08/08 02:36:49;;;;;;;5.20;2.25;;;16.00;99.90;;;;;;5051240;28;20078;-59
2023/08/08 02:39:15;;;;;;;6.13;2.45;;;15.90;99.90;;;;;;5051178;28;20464;-60
2023/08/08 02:41:40;;;;;;;4.30;2.35;;;15.80;99.90;;;;;;5051384;28;20029;-59
2023/08/08 02:44:07;;;;;;;4.32;2.35;;;15.70;99.90;;;;;;5051303;28;20048;-60
2023/08/08 02:46:32;;;;;;;4.00;2.22;;;15.60;99.90;;;;;;5051347;28;20025;-59
2023/08/08 02:48:58;;;;;;;5.05;2.30;;;15.60;99.90;;;;;;5051666;28;20041;-60
2023/08/08 02:51:24;;;;;;;8.13;2.28;;;15.60;99.90;;;;;;5051127;28;20076;-59
2023/08/08 02:53:49;;;;;;;6.18;2.22;;;15.50;99.90;;;;;;5051134;28;20036;-59
2023/08/08 02:56:15;;;;;;;3.65;2.20;;;15.50;99.90;;;;;;5051541;28;20021;-59
2023/08/08 02:58:40;;;;;;;6.88;2.70;;;15.40;99.90;;;;;;5051135;28;20082;-60
2023/08/08 03:01:06;;;;;;;3.47;2.28;;;15.50;99.90;;;;;;5051121;28;20105;-59
2023/08/08 03:03:32;;;;;;;3.65;2.63;;;15.40;99.90;;;;;;5049753;28;20045;-60
2023/08/08 03:05:57;;;;;;;4.07;2.17;;;15.30;99.90;;;;;;5051592;28;20033;-59
2023/08/08 03:08:23;;;;;;;4.07;2.13;;;15.20;99.90;;;;;;5050720;28;20082;-59
2023/08/08 03:10:49;;;;;;;4.68;2.58;;;15.20;99.90;;;;;;5083216;28;20449;-59
2023/08/08 03:13:15;;;;;;;4.47;2.35;;;15.40;99.90;;;;;;5050896;28;20028;-59
2023/08/08 03:15:41;;;;;;;6.32;2.13;;;15.70;99.90;;;;;;5051064;28;20516;-59
2023/08/08 03:18:06;;;;;;;4.32;2.30;;;15.80;99.90;;;;;;5053153;28;20057;-59
2023/08/08 03:20:32;;;;;;;5.70;2.33;;;15.90;99.90;;;;;;5055174;28;20029;-59
2023/08/08 03:22:58;;;;;;;4.20;2.40;;;16.00;99.90;;;;;;5054727;28;20548;-59
2023/08/08 03:25:24;;;;;;;4.15;2.30;;;16.00;99.90;;;;;;5055177;28;20067;-59
2023/08/08 03:27:50;;;;;;;3.92;2.42;;;16.00;99.90;;;;;;5055121;28;20025;-59
2023/08/08 03:30:16;;;;;;;4.57;2.30;;;16.00;99.90;;;;;;5054983;28;20102;-59
2023/08/08 03:32:41;;;;;;;4.45;2.50;;;15.80;99.90;;;;;;5055287;28;20057;-59
2023/08/08 03:35:09;;;;;;;4.10;2.30;;;15.80;99.90;;;;;;5054896;28;20060;-59
2023/08/08 03:37:35;;;;;;;4.93;2.20;;;15.80;99.90;;;;;;5054365;28;20044;-59
2023/08/08 03:40:00;;;;;;;4.05;2.15;;;15.50;99.90;;;;;;5055005;28;20025;-59
2023/08/08 03:42:26;;;;;;;5.68;2.33;;;15.30;99.90;;;;;;5054813;28;20103;-59
2023/08/08 03:44:51;;;;;;;6.30;2.50;;;15.10;99.90;;;;;;5054902;28;20052;-59
2023/08/08 03:47:17;;;;;;;5.25;2.65;;;14.90;99.90;;;;;;5054553;28;20051;-59
2023/08/08 03:49:43;;;;;;;4.93;2.40;;;14.80;99.90;;;;;;5054401;28;20106;-61
2023/08/08 03:52:08;;;;;;;4.50;2.60;;;14.80;99.90;;;;;;5054562;28;20029;-59
2023/08/08 03:54:34;;;;;;;5.00;2.38;;;14.70;99.90;;;;;;5054676;28;20032;-58
2023/08/08 03:57:01;;;;;;;6.72;2.50;;;14.70;99.90;;;;;;5054418;28;20025;-59
2023/08/08 03:59:26;;;;;;;5.93;2.42;;;14.60;99.90;;;;;;5054452;28;20025;-59
2023/08/08 04:01:52;;;;;;;4.72;2.60;;;14.50;99.90;;;;;;5054693;28;20021;-59
2023/08/08 04:04:18;;;;;;;5.72;2.80;;;14.50;99.90;;;;;;5053983;28;20450;-59
2023/08/08 04:06:44;;;;;;;6.30;2.42;;;14.40;99.90;;;;;;5054315;28;20021;-59
2023/08/08 04:09:09;;;;;;;3.78;2.67;;;14.40;99.90;;;;;;5054105;28;20029;-59
2023/08/08 04:11:35;;;;;;;5.30;2.65;;;14.40;99.90;;;;;;5054195;28;20025;-59
2023/08/08 04:14:02;;;;;;;4.32;2.50;;;14.40;99.90;;;;;;5054106;28;20033;-59
2023/08/08 04:16:28;;;;;;;6.40;2.38;;;14.30;99.90;;;;;;5054014;28;20025;-59
2023/08/08 04:18:53;;;;;;;4.10;2.35;;;14.30;99.90;;;;;;5053997;28;20028;-59
2023/08/08 04:21:19;;;;;;;5.05;2.50;;;14.30;99.90;;;;;;5053901;28;20032;-59
2023/08/08 04:23:45;;;;;;;5.07;2.63;;;14.30;99.90;;;;;;5053927;28;20025;-59
2023/08/08 04:26:10;;;;;;;6.32;3.20;;;14.20;99.90;;;;;;5053697;28;20045;-59
2023/08/08 04:28:36;;;;;;;3.20;2.30;;;14.30;99.90;;;;;;5053942;28;20064;-59
2023/08/08 04:31:01;;;;;;;3.83;2.28;;;14.50;99.90;;;;;;5053698;28;20029;-59
2023/08/08 04:33:27;;;;;;;6.18;2.90;;;14.60;99.90;;;;;;5053455;28;20421;-59
2023/08/08 04:35:53;;;;;;;4.30;2.80;;;14.80;99.90;;;;;;5053826;28;20504;-58
2023/08/08 04:38:18;;;;;;;4.65;2.95;;;14.90;99.90;;;;;;5053994;28;20029;-59
2023/08/08 04:40:44;;;;;;;4.05;2.80;;;14.90;99.90;;;;;;5053711;28;20098;-59
2023/08/08 04:43:10;;;;;;;5.13;2.75;;;14.90;99.90;;;;;;5053584;28;20024;-59
2023/08/08 04:45:35;;;;;;;5.05;2.90;;;14.90;99.90;;;;;;5053733;28;20059;-58
2023/08/08 04:48:01;;;;;;;5.22;2.97;;;14.80;99.90;;;;;;5053199;28;20066;-59
2023/08/08 04:50:28;;;;;;;4.85;2.75;;;14.70;99.90;;;;;;5053924;28;20029;-59
2023/08/08 04:52:53;;;;;;;4.30;2.72;;;14.70;99.90;;;;;;5053357;28;20485;-59
2023/08/08 04:55:19;;;;;;;4.72;2.80;;;14.70;99.90;;;;;;5053765;28;20021;-59
2023/08/08 04:57:45;;;;;;;6.30;3.15;;;14.50;99.90;;;;;;5053397;28;20025;-59
2023/08/08 05:00:11;;;;;;;6.93;3.38;;;14.40;99.90;;;;;;5053110;28;20029;-59
2023/08/08 05:02:39;;;;;;;5.90;3.30;;;14.30;99.90;;;;;;5052878;28;20524;-59
2023/08/08 05:05:05;;;;;;;7.43;3.45;;;14.20;99.90;;;;;;5053121;28;20086;-58
2023/08/08 05:07:30;;;;;;;4.45;3.30;;;14.10;99.90;;;;;;5053024;28;20114;-59
2023/08/08 05:09:56;;;;;;;4.82;3.17;;;14.00;99.90;;;;;;5053568;28;20076;-59
2023/08/08 05:12:22;;;;;;;5.03;3.10;;;14.00;99.90;;;;;;5053159;28;20032;-59
2023/08/08 05:14:47;;;;;;;4.53;3.03;;;14.00;99.90;;;;;;5052977;28;20453;-59
2023/08/08 05:17:13;;;;;;;4.28;2.70;;;14.00;99.90;;;;;;5053104;28;20398;-59
2023/08/08 05:19:39;;;;;;;4.07;2.50;;;13.90;99.90;;;;;;5052858;28;20401;-59
2023/08/08 05:22:05;;;;;;;7.05;3.17;;;13.80;99.90;;;;;;5052983;28;20035;-59
2023/08/08 05:24:31;;;;;;;6.55;3.28;;;13.90;99.90;;;;;;5051396;28;20540;-59
2023/08/08 05:26:56;;;;;;;4.30;2.83;;;13.80;99.90;;;;;;5052645;28;20025;-59
2023/08/08 05:29:22;;;;;;;7.38;3.10;;;13.80;99.90;;;;;;5053045;28;20129;-59
2023/08/08 05:31:48;;;;;;;5.68;2.60;;;13.80;99.90;;;;;;5052304;28;20029;-59
2023/08/08 05:34:14;;;;;;;7.25;3.17;;;13.70;99.90;;;;;;5052753;28;20025;-59
2023/08/08 05:36:39;;;;;;;6.30;3.20;;;13.80;99.90;;;;;;5053109;28;20029;-59
2023/08/08 05:39:06;;;;;;;6.55;3.10;;;13.80;99.90;;;;;;5052623;28;20489;-59
2023/08/08 05:41:32;;;;;;;4.43;3.00;;;13.90;99.90;;;;;;5051766;28;20429;-60
2023/08/08 05:43:58;;;;;;;4.45;3.28;;;13.90;99.90;;;;;;5052349;28;20033;-59
2023/08/08 05:46:24;;;;;;;5.60;3.20;;;13.90;99.90;;;;;;5052068;28;20436;-59
2023/08/08 05:48:50;;;;;;;5.18;2.83;;;14.20;99.90;;;;;;5052768;28;20460;-60
2023/08/08 05:51:15;;;;;;;8.90;3.22;;;14.50;99.90;;;;;;5052243;28;20405;-60
2023/08/08 05:53:41;;;;;;;6.40;3.38;;;14.70;99.90;;;;;;5052312;28;20017;-59
2023/08/08 05:56:08;;;;;;;6.05;3.00;;;14.80;99.90;;;;;;5052337;28;20512;-59
2023/08/08 05:58:34;;;;;;;4.63;2.70;;;14.90;99.90;;;;;;5052104;28;20033;-59
2023/08/08 06:01:00;;;;;;;6.20;2.85;;;14.90;99.90;;;;;;5051762;28;20032;-59
2023/08/08 06:03:25;;;;;;;4.07;2.83;;;15.00;99.90;;;;;;5052472;28;20033;-59
2023/08/08 06:05:51;;;;;;;6.32;2.90;;;15.20;99.90;;;;;;5052080;28;20029;-59
2023/08/08 06:08:17;;;;;;;4.70;2.60;;;15.10;99.90;;;;;;5051959;28;20025;-61
2023/08/08 06:10:43;;;;;;;4.22;2.72;;;15.10;99.90;;;;;;5051984;28;20495;-61
2023/08/08 06:13:08;;;;;;;4.70;2.58;;;15.10;99.90;;;;;;5052489;28;20420;-60
2023/08/08 06:15:34;;;;;;;4.95;3.13;;;15.00;99.90;;;;;;5051349;28;20032;-60
2023/08/08 06:18:00;;;;;;;4.40;2.78;;;14.80;99.90;;;;;;5051729;28;20036;-61
2023/08/08 06:20:25;;;;;;;4.55;2.80;;;14.80;99.90;;;;;;5052195;28;20056;-61
2023/08/08 06:22:51;;;;;;;5.05;2.80;;;14.70;99.90;;;;;;5051705;28;20079;-61
2023/08/08 06:25:17;;;;;;;4.47;2.60;;;14.70;99.90;;;;;;5051523;28;20056;-61
2023/08/08 06:27:43;;;;;;;4.78;2.47;;;14.80;99.90;;;;;;5051499;28;20397;-61
2023/08/08 06:30:09;;;;;;;5.68;2.40;;;14.80;99.90;;;;;;5051625;28;20024;-60
2023/08/08 06:32:34;;;;;;;5.03;2.70;;;14.80;99.90;;;;;;5051635;28;20071;-61
2023/08/08 06:35:00;;;;;;;3.63;2.55;;;14.80;99.90;;;;;;5051550;28;20017;-61
2023/08/08 06:37:26;;;;;;;3.72;2.47;;;14.90;99.90;;;;;;5051349;28;20441;-60
2023/08/08 06:39:51;;;;;;;4.90;2.40;;;15.00;99.90;;;;;;5051609;28;20086;-61
2023/08/08 06:42:17;;;;;;;4.55;2.35;;;15.00;99.90;;;;;;5051654;28;20343;-60
2023/08/08 06:44:44;;;;;;;3.53;2.50;;;15.00;99.90;;;;;;5051017;28;20033;-60
2023/08/08 06:47:10;;;;;;;4.88;2.38;;;15.10;99.90;;;;;;5051319;28;20045;-61
2023/08/08 06:49:37;;;;;;;3.60;2.30;;;15.10;99.90;;;;;;5051163;28;20029;-61
2023/08/08 06:52:03;;;;;;;4.65;2.50;;;15.20;99.90;;;;;;5051312;28;20414;-60
2023/08/08 06:54:29;;;;;;;4.03;2.50;;;15.30;99.90;;;;;;5051554;28;20486;-61
2023/08/08 06:56:56;;;;;;;3.38;2.58;;;15.40;99.90;;;;;;5051028;28;20086;-60
2023/08/08 06:59:23;;;;;;;3.15;2.47;;;15.50;99.90;;;;;;5050746;28;20045;-61
2023/08/08 07:01:50;;;;;;;3.83;2.35;;;15.60;99.90;;;;;;5051203;28;20028;-61
2023/08/08 07:04:17;;;;;;;5.03;2.60;;;15.70;99.90;;;;;;5051139;28;20029;-60
2023/08/08 07:06:43;;;;;;;3.42;2.22;;;15.80;99.90;;;;;;5051520;28;20452;-60
2023/08/08 07:09:10;;;;;;;4.70;2.33;;;16.00;99.90;;;;;;5051072;28;20029;-59
2023/08/08 07:11:37;;;;;;;4.20;2.17;;;16.20;99.90;;;;;;5050878;28;20037;-60
2023/08/08 07:14:03;;;;;;;5.65;2.28;;;16.30;99.90;;;;;;5050568;28;20052;-60
2023/08/08 07:16:28;;;;;;;3.53;2.40;;;16.50;99.90;;;;;;5051022;28;20486;-60
2023/08/08 07:18:54;;;;;;;4.43;2.55;;;16.70;99.90;;;;;;5050856;28;20028;-60
2023/08/08 07:21:20;;;;;;;3.33;2.25;;;16.80;99.90;;;;;;5051470;28;20028;-61
2023/08/08 07:23:46;;;;;;;3.95;2.15;;;16.90;99.90;;;;;;5051052;28;20555;-61
2023/08/08 07:26:11;;;;;;;2.92;2.28;;;17.00;99.90;;;;;;5050588;28;20048;-61
2023/08/08 07:28:37;;;;;;;3.50;2.42;;;17.10;99.90;;;;;;5050745;28;20056;-60
2023/08/08 07:31:03;;;;;;;4.15;2.28;;;17.20;99.90;;;;;;5050820;28;20378;-60
2023/08/08 07:33:29;;;;;;;3.47;2.15;;;17.30;99.90;;;;;;5050906;28;20029;-61
2023/08/08 07:35:54;;;;;;;2.78;2.00;;;17.40;99.90;;;;;;5050878;28;20018;-61
2023/08/08 07:38:20;;;;;;;3.67;2.22;;;17.40;99.90;;;;;;5050822;28;20040;-61
2023/08/08 07:40:47;;;;;;;3.30;2.25;;;17.40;99.90;;;;;;5050823;28;20021;-61
2023/08/08 07:43:12;;;;;;;3.80;2.00;;;17.40;99.90;;;;;;5050790;28;20423;-60
2023/08/08 07:45:38;;;;;;;3.72;2.38;;;17.40;99.90;;;;;;5050820;28;20460;-61
2023/08/08 07:48:04;;;;;;;4.20;2.28;;;17.40;99.90;;;;;;5050695;28;20108;-61
2023/08/08 07:50:31;;;;;;;4.22;2.15;;;17.50;99.90;;;;;;5050839;28;20022;-61
2023/08/08 07:52:56;;;;;;;4.25;2.30;;;17.50;99.90;;;;;;5050683;28;20338;-60
2023/08/08 07:55:22;;;;;;;5.15;2.42;;;17.60;99.90;;;;;;5050597;28;20028;-61
2023/08/08 07:57:48;;;;;;;3.80;2.13;;;17.70;99.90;;;;;;5050574;28;20478;-60
2023/08/08 08:00:14;;;;;;;3.03;2.22;;;17.70;99.90;;;;;;5050865;28;20115;-60
2023/08/08 08:02:41;;;;;;;3.58;2.20;;;17.80;99.90;;;;;;5050652;28;20056;-61
2023/08/08 08:05:07;;;;;;;3.90;2.17;;;18.00;99.90;;;;;;5054434;28;20402;-61
2023/08/08 08:07:34;;;;;;;4.32;2.35;;;18.00;99.90;;;;;;5054620;28;20021;-61
2023/08/08 08:10:04;;;;;;;4.07;2.00;;;18.20;99.90;;;;;;5054086;28;20033;-60
2023/08/08 08:12:31;;;;;;;4.88;2.25;;;18.30;99.90;;;;;;5053932;28;20028;-61
2023/08/08 08:14:57;;;;;;;3.47;2.20;;;18.40;99.90;;;;;;5054036;28;20546;-61
2023/08/08 08:17:23;;;;;;;2.47;1.98;;;18.50;99.90;;;;;;5054380;28;20048;-61
2023/08/08 08:19:51;;;;;;;3.28;2.33;;;18.60;99.90;;;;;;5054201;28;20499;-61
2023/08/08 08:22:17;;;;;;;2.85;2.03;;;18.70;99.90;;;;;;5052747;28;20017;-60
2023/08/08 08:24:42;;;;;;;2.72;2.03;;;18.90;99.90;;;;;;5053840;28;20075;-60
2023/08/08 08:27:08;;;;;;;3.33;2.22;;;19.00;99.90;;;;;;5053992;28;20100;-61
2023/08/08 08:29:34;;;;;;;3.92;2.00;;;19.20;99.90;;;;;;5053899;28;20493;-61
2023/08/08 08:32:00;;;;;;;4.18;2.20;;;19.60;99.90;;;;;;5053812;28;20052;-61
2023/08/08 08:34:25;;;;;;;4.38;2.45;;;19.70;99.90;;;;;;5053921;28;20041;-60
2023/08/08 08:36:51;;;;;;;4.95;2.20;;;19.80;99.90;;;;;;5052448;28;20522;-60
2023/08/08 08:39:17;;;;;;;3.22;2.10;;;19.90;99.90;;;;;;5053625;28;20029;-61
2023/08/08 08:41:47;;;;;;;3.03;2.05;;;20.10;99.90;;;;;;5053447;28;20108;-61
2023/08/08 08:44:16;;;;;;;3.03;2.15;;;20.10;99.90;;;;;;5053858;28;20044;-61
2023/08/08 08:46:43;;;;;;;3.42;2.20;;;20.20;99.90;;;;;;5053474;28;20021;-60
2023/08/08 08:49:10;;;;;;;3.95;2.40;;;20.20;99.90;;;;;;5053538;28;20033;-61
2023/08/08 08:51:36;;;;;;;4.03;2.10;;;20.20;99.90;;;;;;5053327;28;20103;-60
2023/08/08 08:54:02;;;;;;;3.35;2.10;;;20.20;99.90;;;;;;5053872;28;20041;-61
2023/08/08 08:56:28;;;;;;;2.83;2.00;;;20.10;99.90;;;;;;5053061;28;20029;-61
2023/08/08 08:58:54;;;;;;;3.17;2.03;;;20.20;99.90;;;;;;5053309;28;20478;-60
2023/08/08 09:01:23;;;;;;;4.63;1.80;;;20.20;99.90;;;;;;5053454;28;20094;-60
2023/08/08 09:03:49;;;;;;;3.33;1.92;;;20.30;99.90;;;;;;5053240;28;20029;-61
2023/08/08 09:06:16;;;;;;;3.28;2.13;;;20.40;99.90;;;;;;5053364;28;20032;-61
2023/08/08 09:08:41;;;;;;;3.85;2.13;;;20.30;99.90;;;;;;5053054;28;20395;-63
2023/08/08 09:11:07;;;;;;;3.20;1.95;;;20.40;99.90;;;;;;5051948;28;20028;-61
2023/08/08 09:13:37;;;;;;;3.00;2.00;;;20.60;99.90;;;;;;5052869;28;20037;-61
2023/08/08 09:16:06;;;;;;;4.68;2.10;;;20.70;99.90;;;;;;5052203;28;20025;-61
2023/08/08 09:18:32;;;;;;;4.25;2.08;;;20.90;99.90;;;;;;5052941;28;20036;-61
2023/08/08 09:20:58;;;;;;;3.67;2.00;;;21.00;99.90;;;;;;5052843;28;20100;-61
2023/08/08 09:23:24;;;;;;;2.90;1.90;;;21.20;99.90;;;;;;5052459;28;20074;-61
2023/08/08 09:25:50;;;;;;;2.65;2.00;;;21.10;99.90;;;;;;5052692;28;20045;-60
2023/08/08 09:28:16;;;;;;;3.00;1.90;;;21.20;99.90;;;;;;5052929;28;20033;-60
2023/08/08 09:30:42;;;;;;;2.63;2.00;;;21.20;99.90;;;;;;5053204;28;20025;-61
2023/08/08 09:33:08;;;;;;;4.50;2.08;;;21.20;99.90;;;;;;5052704;28;20486;-61
2023/08/08 09:35:37;;;;;;;3.28;2.13;;;21.40;99.90;;;;;;5052564;28;20052;-61
2023/08/08 09:38:03;;;;;;;3.38;2.00;;;21.50;99.90;;;;;;5052432;28;20036;-61
2023/08/08 09:40:29;;;;;;;3.78;1.90;;;21.60;99.90;;;;;;5051316;28;20025;-60
2023/08/08 09:42:56;;;;;;;2.45;1.80;;;21.80;99.90;;;;;;5052457;28;20036;-61
2023/08/08 09:45:23;;;;;;;3.17;1.88;;;22.00;99.90;;;;;;5052868;28;20136;-61
2023/08/08 09:47:54;;;;;;;2.78;1.98;;;22.20;99.90;;;;;;5052387;28;20444;-60
2023/08/08 09:50:20;;;;;;;2.33;1.73;;;22.30;99.90;;;;;;5052214;28;20402;-61
2023/08/08 09:52:47;;;;;;;2.70;1.95;;;22.50;99.90;;;;;;5052085;28;20025;-61
2023/08/08 09:55:13;;;;;;;3.10;1.80;;;22.60;99.90;;;;;;5052716;28;20033;-61
2023/08/08 09:57:40;;;;;;;4.45;2.20;;;22.70;99.90;;;;;;5052319;28;20029;-61
2023/08/08 10:00:10;;;;;;;3.85;2.05;;;22.80;99.90;;;;;;5052212;28;20170;-61
2023/08/08 10:02:36;;;;;;;4.38;2.00;;;22.80;99.90;;;;;;5052229;28;20025;-61
2023/08/08 10:05:04;;;;;;;2.78;1.90;;;22.90;99.90;;;;;;5052296;28;20124;-60
2023/08/08 10:07:30;;;;;;;3.03;2.00;;;23.10;99.90;;;;;;5051634;28;20036;-61
2023/08/08 10:09:57;;;;;;;3.10;1.95;;;23.10;99.90;;;;;;5052082;28;20033;-61
2023/08/08 10:12:25;;;;;;;3.75;2.00;;;23.10;99.90;;;;;;5051987;28;20025;-60
2023/08/08 10:14:52;;;;;;;4.35;1.90;;;23.10;99.90;;;;;;5052241;28;20120;-61
2023/08/08 10:17:18;;;;;;;3.70;1.83;;;23.10;99.90;;;;;;5051912;28;20024;-61
2023/08/08 10:19:54;;;;;;;3.55;1.83;;;23.10;99.90;;;;;;5051744;28;20107;-61
2023/08/08 10:22:23;;;;;;;3.67;2.20;;;23.20;99.90;;;;;;5051484;28;20024;-61
2023/08/08 10:24:53;;;;;;;5.18;2.10;;;23.20;99.90;;;;;;5051351;28;20064;-60
2023/08/08 10:27:33;;;;;;;5.10;2.03;;;23.20;99.90;;;;;;5051333;28;20492;-61
2023/08/08 10:30:10;;;;;;;4.30;2.20;;;23.30;99.90;;;;;;5051690;28;20048;-61
2023/08/08 10:32:48;;;;;;;4.28;2.10;;;23.30;99.90;;;;;;5051904;28;20024;-61
2023/08/08 10:35:14;;;;;;;4.63;1.92;;;23.40;99.90;;;;;;5051955;28;20032;-61
2023/08/08 10:37:41;;;;;;;5.18;1.88;;;23.40;99.90;;;;;;5051196;28;20052;-61
2023/08/08 10:40:07;;;;;;;4.75;2.15;;;23.70;99.90;;;;;;5051409;28;20032;-61
2023/08/08 10:42:42;;;;;;;3.88;2.00;;;23.90;99.90;;;;;;5051622;28;20025;-61
2023/08/08 10:45:12;;;;;;;3.90;2.08;;;24.00;99.90;;;;;;5051523;28;20425;-61
2023/08/08 10:47:38;;;;;;;3.42;2.20;;;23.90;99.90;;;;;;5051184;28;20102;-62
2023/08/08 10:50:11;;;;;;;4.00;1.90;;;24.00;99.90;;;;;;5051352;28;20024;-61
2023/08/08 10:52:52;;;;;;;3.85;1.98;;;24.00;99.90;;;;;;5051741;28;20025;-61
2023/08/08 10:55:26;;;;;;;2.63;2.03;;;23.90;99.90;;;;;;5051224;28;20512;-61
2023/08/08 10:58:04;;;;;;;5.10;2.35;;;23.90;99.90;;;;;;5051374;28;20040;-60
2023/08/08 11:00:32;;;;;;;4.63;2.13;;;24.00;99.90;;;;;;5051187;28;20510;-61
2023/08/08 11:02:59;;;;;;;4.30;2.00;;;24.50;99.90;;;;;;5049965;28;20106;-61
2023/08/08 11:05:27;;;;;;;3.25;2.00;;;24.60;99.90;;;;;;5050923;28;20054;-61
2023/08/08 11:07:53;;;;;;;3.33;1.95;;;24.80;99.90;;;;;;5051164;28;20048;-60
2023/08/08 11:10:19;;;;;;;4.72;2.45;;;25.00;99.90;;;;;;5051021;28;20029;-61
2023/08/08 11:12:56;;;;;;;5.85;2.13;;;24.90;99.90;;;;;;5051087;28;20040;-61
2023/08/08 11:15:22;;;;;;;3.00;2.00;;;25.00;99.90;;;;;;5050902;28;20056;-60
2023/08/08 11:17:49;;;;;;;3.95;1.83;;;25.20;99.90;;;;;;5050873;28;20072;-61
2023/08/08 11:20:14;;;;;;;3.13;1.98;;;25.30;99.90;;;;;;5051008;28;20025;-61
2023/08/08 11:22:40;;;;;;;3.15;1.90;;;25.30;99.90;;;;;;5051251;28;20040;-61
2023/08/08 11:25:07;;;;;;;3.60;2.13;;;25.20;99.90;;;;;;5050730;28;20092;-60
2023/08/08 11:27:33;;;;;;;4.38;2.75;;;25.30;99.90;;;;;;5050958;28;20393;-61
2023/08/08 11:29:59;;;;;;;5.68;2.45;;;25.10;99.90;;;;;;5051563;28;20025;-60
2023/08/08 11:32:30;;;;;;;4.18;2.75;;;25.10;99.90;;;;;;5050540;28;20113;-61
2023/08/08 11:34:56;;;;;;;3.40;2.58;;;25.00;99.90;;;;;;5050928;28;20029;-61
2023/08/08 11:37:23;;;;;;;4.47;2.47;;;25.00;99.90;;;;;;5050727;28;20040;-60
2023/08/08 11:39:49;;;;;;;4.53;2.70;;;25.00;99.90;;;;;;5054174;28;20055;-61
2023/08/08 11:42:15;;;;;;;5.05;2.88;;;24.90;99.90;;;;;;5054952;28;20557;-60
2023/08/08 11:44:41;;;;;;;3.67;2.45;;;24.80;99.90;;;;;;5054765;28;20037;-61
2023/08/08 11:47:07;;;;;;;4.90;2.58;;;24.90;99.90;;;;;;5054649;28;20497;-61
2023/08/08 11:49:41;;;;;;;4.63;2.50;;;24.80;99.90;;;;;;5054244;28;20029;-61
2023/08/08 11:52:08;;;;;;;4.38;2.97;;;24.70;99.90;;;;;;5054660;28;20036;-62
2023/08/08 11:54:36;;;;;;;5.03;2.60;;;24.70;99.90;;;;;;5053361;28;20036;-61
2023/08/08 11:57:02;;;;;;;3.80;2.35;;;24.80;99.90;;;;;;5054502;28;20025;-61
2023/08/08 11:59:28;;;;;;;5.00;2.90;;;24.80;99.90;;;;;;5054865;28;20103;-61
2023/08/08 12:01:56;;;;;;;6.15;3.08;;;24.90;99.90;;;;;;5054528;28;20481;-60
2023/08/08 12:04:22;;;;;;;4.25;2.70;;;25.10;99.90;;;;;;5054030;28;20098;-62
2023/08/08 12:06:48;;;;;;;3.63;2.72;;;25.10;99.90;;;;;;5054680;28;20147;-61
2023/08/08 12:09:14;;;;;;;4.35;2.90;;;25.20;99.90;;;;;;5054455;28;20112;-61
2023/08/08 12:11:40;;;;;;;4.38;3.00;;;25.50;99.90;;;;;;5054232;28;20029;-61
2023/08/08 12:14:13;;;;;;;4.18;2.70;;;25.60;99.90;;;;;;5054425;28;20044;-61
2023/08/08 12:16:39;;;;;;;4.30;2.63;;;25.50;99.90;;;;;;5054046;28;20021;-61
2023/08/08 12:19:09;;;;;;;4.80;2.72;;;25.50;99.90;;;;;;5053700;28;20017;-61
2023/08/08 12:21:34;;;;;;;4.47;2.50;;;25.70;99.90;;;;;;5054157;28;20104;-60
2023/08/08 12:24:00;;;;;;;4.72;2.60;;;25.80;99.90;;;;;;5054148;28;20120;-61
2023/08/08 12:26:26;;;;;;;5.03;2.65;;;26.00;99.90;;;;;;5053924;28;20120;-61
2023/08/08 12:28:53;;;;;;;4.82;2.78;;;26.10;99.90;;;;;;5053682;28;20025;-61
2023/08/08 12:31:19;;;;;;;4.13;2.55;;;26.10;99.90;;;;;;5054122;28;20029;-62
2023/08/08 12:33:45;;;;;;;4.43;2.42;;;26.30;99.90;;;;;;5053459;28;20502;-61
2023/08/08 12:36:12;;;;;;;4.82;2.63;;;26.40;99.90;;;;;;5053727;28;20028;-61
2023/08/08 12:38:38;;;;;;;4.68;2.58;;;26.40;99.90;;;;;;5054223;28;20091;-61
2023/08/08 12:41:03;;;;;;;4.45;2.47;;;26.60;99.90;;;;;;5053664;28;20482;-61
2023/08/08 12:43:29;;;;;;;5.20;2.80;;;26.60;99.90;;;;;;5053592;28;20028;-61
2023/08/08 12:45:55;;;;;;;5.00;2.63;;;26.70;99.90;;;;;;5053558;28;20309;-61